sensor_id;sensor_type;location;lat;lon;timestamp;pressure;altitude;pressure_sealevel;temperature;humidity
59859;BME280;45734;53.648;9.566;2022-08-01T00:03:03;101252.56;;;17.71;100.00
59859;BME280;45734;53.648;9.566;2022-08-01T00:08:04;101242.84;;;17.70;100.00
59859;BME280;45734;53.648;9.566;2022-08-01T00:13:04;101243.66;;;17.70;100.00
59859;BME280;45734;53.648;9.566;2022-08-01T00:18:04;101244.50;;;17.71;100.00
59859;BME280;45734;53.648;9.566;2022-08-01T00:23:05;101248.88;;;17.72;100.00
59859;BME280;45734;53.648;9.566;2022-08-01T00:28:05;101245.53;;;17.70;100.00
59859;BME280;45734;53.648;9.566;2022-08-01T00:33:08;101247.59;;;17.68;100.00
59859;BME280;45734;53.648;9.566;2022-08-01T00:38:09;101240.31;;;17.68;100.00
59859;BME280;45734;53.648;9.566;2022-08-01T00:43:09;101237.84;;;17.67;100.00
59859;BME280;45734;53.648;9.566;2022-08-01T00:48:10;101243.22;;;17.67;100.00
59859;BME280;45734;53.648;9.566;2022-08-01T00:53:11;101242.41;;;17.66;100.00
59859;BME280;45734;53.648;9.566;2022-08-01T00:58:11;101247.97;;;17.64;100.00
59859;BME280;45734;53.648;9.566;2022-08-01T01:03:12;101250.88;;;17.63;100.00
59859;BME280;45734;53.648;9.566;2022-08-01T01:08:18;101254.78;;;17.60;100.00
59859;BME280;45734;53.648;9.566;2022-08-01T01:18:38;101266.97;;;17.56;100.00
59859;BME280;45734;53.648;9.566;2022-08-01T01:24:13;101266.13;;;17.56;100.00
59859;BME280;45734;53.648;9.566;2022-08-01T01:29:21;101269.03;;;17.54;100.00
59859;BME280;45734;53.648;9.566;2022-08-01T01:34:23;101272.75;;;17.53;100.00
59859;BME280;45734;53.648;9.566;2022-08-01T01:39:26;101281.22;;;17.50;100.00
59859;BME280;45734;53.648;9.566;2022-08-01T01:44:29;101275.19;;;17.48;100.00
59859;BME280;45734;53.648;9.566;2022-08-01T01:49:31;101273.53;;;17.47;100.00
59859;BME280;45734;53.648;9.566;2022-08-01T01:54:36;101281.59;;;17.47;100.00
59859;BME280;45734;53.648;9.566;2022-08-01T01:59:38;101279.28;;;17.44;100.00
59859;BME280;45734;53.648;9.566;2022-08-01T02:04:41;101288.03;;;17.46;100.00
59859;BME280;45734;53.648;9.566;2022-08-01T02:09:43;101288.66;;;17.48;100.00
59859;BME280;45734;53.648;9.566;2022-08-01T02:14:46;101293.59;;;17.45;100.00
59859;BME280;45734;53.648;9.566;2022-08-01T02:19:48;101293.81;;;17.43;100.00
59859;BME280;45734;53.648;9.566;2022-08-01T02:24:53;101293.97;;;17.41;100.00
59859;BME280;45734;53.648;9.566;2022-08-01T02:30:00;101292.72;;;17.37;100.00
59859;BME280;45734;53.648;9.566;2022-08-01T02:35:02;101289.56;;;17.34;100.00
59859;BME280;45734;53.648;9.566;2022-08-01T02:40:04;101292.25;;;17.34;100.00
59859;BME280;45734;53.648;9.566;2022-08-01T02:45:06;101283.31;;;17.33;100.00
59859;BME280;45734;53.648;9.566;2022-08-01T02:50:10;101283.53;;;17.32;100.00
59859;BME280;45734;53.648;9.566;2022-08-01T02:55:13;101288.94;;;17.32;100.00
59859;BME280;45734;53.648;9.566;2022-08-01T03:00:15;101292.66;;;17.31;100.00
59859;BME280;45734;53.648;9.566;2022-08-01T03:05:17;101296.34;;;17.30;100.00
59859;BME280;45734;53.648;9.566;2022-08-01T03:10:17;101294.88;;;17.27;100.00
59859;BME280;45734;53.648;9.566;2022-08-01T03:15:18;101297.78;;;17.26;100.00
59859;BME280;45734;53.648;9.566;2022-08-01T03:20:20;101297.13;;;17.24;100.00
59859;BME280;45734;53.648;9.566;2022-08-01T03:25:24;101302.88;;;17.20;100.00
59859;BME280;45734;53.648;9.566;2022-08-01T03:30:27;101307.81;;;17.17;100.00
59859;BME280;45734;53.648;9.566;2022-08-01T03:35:36;101302.81;;;17.14;100.00
59859;BME280;45734;53.648;9.566;2022-08-01T03:40:45;101311.06;;;17.12;100.00
59859;BME280;45734;53.648;9.566;2022-08-01T03:45:50;101308.38;;;17.12;100.00
59859;BME280;45734;53.648;9.566;2022-08-01T03:50:52;101310.91;;;17.14;100.00
59859;BME280;45734;53.648;9.566;2022-08-01T03:55:54;101321.00;;;17.12;100.00
59859;BME280;45734;53.648;9.566;2022-08-01T04:00:55;101329.53;;;17.15;100.00
59859;BME280;45734;53.648;9.566;2022-08-01T04:05:57;101334.53;;;17.18;100.00
59859;BME280;45734;53.648;9.566;2022-08-01T04:10:57;101326.84;;;17.15;100.00
59859;BME280;45734;53.648;9.566;2022-08-01T04:15:58;101334.91;;;17.15;100.00
59859;BME280;45734;53.648;9.566;2022-08-01T04:20:59;101351.91;;;17.16;100.00
59859;BME280;45734;53.648;9.566;2022-08-01T04:26:00;101351.06;;;17.15;100.00
59859;BME280;45734;53.648;9.566;2022-08-01T04:31:06;101356.00;;;17.12;100.00
59859;BME280;45734;53.648;9.566;2022-08-01T04:36:10;101366.59;;;17.13;100.00
59859;BME280;45734;53.648;9.566;2022-08-01T04:41:12;101377.91;;;17.09;100.00
59859;BME280;45734;53.648;9.566;2022-08-01T04:46:14;101374.41;;;17.08;100.00
59859;BME280;45734;53.648;9.566;2022-08-01T04:51:17;101381.66;;;17.08;100.00
59859;BME280;45734;53.648;9.566;2022-08-01T04:56:21;101390.34;;;17.10;100.00
59859;BME280;45734;53.648;9.566;2022-08-01T05:01:22;101394.13;;;17.15;100.00
59859;BME280;45734;53.648;9.566;2022-08-01T05:06:22;101396.44;;;17.18;100.00
59859;BME280;45734;53.648;9.566;2022-08-01T05:11:22;101396.06;;;17.22;100.00
59859;BME280;45734;53.648;9.566;2022-08-01T05:16:23;101400.06;;;17.26;100.00
59859;BME280;45734;53.648;9.566;2022-08-01T05:21:23;101410.84;;;17.26;100.00
59859;BME280;45734;53.648;9.566;2022-08-01T05:26:23;101413.31;;;17.27;100.00
59859;BME280;45734;53.648;9.566;2022-08-01T05:31:24;101418.25;;;17.24;100.00
59859;BME280;45734;53.648;9.566;2022-08-01T05:36:24;101428.00;;;17.25;100.00
59859;BME280;45734;53.648;9.566;2022-08-01T05:41:24;101420.50;;;17.20;100.00
59859;BME280;45734;53.648;9.566;2022-08-01T05:46:25;101433.69;;;17.15;100.00
59859;BME280;45734;53.648;9.566;2022-08-01T05:51:25;101434.63;;;17.07;100.00
59859;BME280;45734;53.648;9.566;2022-08-01T05:56:26;101445.22;;;17.09;100.00
59859;BME280;45734;53.648;9.566;2022-08-01T06:01:26;101459.13;;;17.12;100.00
59859;BME280;45734;53.648;9.566;2022-08-01T06:06:27;101452.44;;;17.08;100.00
59859;BME280;45734;53.648;9.566;2022-08-01T06:11:27;101462.38;;;17.08;100.00
59859;BME280;45734;53.648;9.566;2022-08-01T06:16:27;101462.47;;;17.00;100.00
59859;BME280;45734;53.648;9.566;2022-08-01T06:21:28;101470.09;;;16.96;100.00
59859;BME280;45734;53.648;9.566;2022-08-01T06:26:28;101482.69;;;16.95;100.00
59859;BME280;45734;53.648;9.566;2022-08-01T06:31:28;101475.84;;;16.93;100.00
59859;BME280;45734;53.648;9.566;2022-08-01T06:36:29;101487.25;;;16.95;100.00
59859;BME280;45734;53.648;9.566;2022-08-01T06:41:29;101495.16;;;16.96;100.00
59859;BME280;45734;53.648;9.566;2022-08-01T06:46:29;101499.03;;;16.94;100.00
59859;BME280;45734;53.648;9.566;2022-08-01T06:51:30;101492.25;;;16.98;100.00
59859;BME280;45734;53.648;9.566;2022-08-01T06:56:31;101504.06;;;17.12;100.00
59859;BME280;45734;53.648;9.566;2022-08-01T07:01:32;101497.75;;;17.19;100.00
59859;BME280;45734;53.648;9.566;2022-08-01T07:06:32;101500.97;;;17.30;100.00
59859;BME280;45734;53.648;9.566;2022-08-01T07:11:32;101511.84;;;17.51;100.00
59859;BME280;45734;53.648;9.566;2022-08-01T07:16:33;101526.03;;;17.60;100.00
59859;BME280;45734;53.648;9.566;2022-08-01T07:21:33;101510.84;;;17.74;100.00
59859;BME280;45734;53.648;9.566;2022-08-01T07:26:35;101528.50;;;18.34;100.00
59859;BME280;45734;53.648;9.566;2022-08-01T07:31:35;101532.50;;;19.22;100.00
59859;BME280;45734;53.648;9.566;2022-08-01T07:36:36;101540.00;;;20.43;100.00
59859;BME280;45734;53.648;9.566;2022-08-01T07:41:36;101540.44;;;22.17;100.00
59859;BME280;45734;53.648;9.566;2022-08-01T07:46:36;101552.38;;;23.34;100.00
59859;BME280;45734;53.648;9.566;2022-08-01T07:51:36;101551.91;;;24.34;92.07
59859;BME280;45734;53.648;9.566;2022-08-01T07:56:38;101568.97;;;24.42;84.73
59859;BME280;45734;53.648;9.566;2022-08-01T08:01:38;101572.13;;;23.97;85.62
59859;BME280;45734;53.648;9.566;2022-08-01T08:06:38;101575.84;;;22.85;92.70
59859;BME280;45734;53.648;9.566;2022-08-01T08:11:39;101589.28;;;23.05;96.71
59859;BME280;45734;53.648;9.566;2022-08-01T08:16:40;101583.22;;;23.03;92.26
59859;BME280;45734;53.648;9.566;2022-08-01T08:21:40;101595.53;;;21.65;98.81
59859;BME280;45734;53.648;9.566;2022-08-01T08:26:40;101583.97;;;20.78;100.00
59859;BME280;45734;53.648;9.566;2022-08-01T08:31:41;101582.44;;;20.36;100.00
59859;BME280;45734;53.648;9.566;2022-08-01T08:36:41;101592.44;;;20.22;100.00
59859;BME280;45734;53.648;9.566;2022-08-01T08:41:42;101594.53;;;20.47;100.00
59859;BME280;45734;53.648;9.566;2022-08-01T08:46:47;101611.25;;;21.10;99.97
59859;BME280;45734;53.648;9.566;2022-08-01T08:51:50;101614.75;;;22.09;92.82
59859;BME280;45734;53.648;9.566;2022-08-01T08:56:54;101615.94;;;22.26;97.31
59859;BME280;45734;53.648;9.566;2022-08-01T09:01:56;101626.06;;;22.44;92.04
59859;BME280;45734;53.648;9.566;2022-08-01T09:06:56;101627.78;;;21.87;93.28
59859;BME280;45734;53.648;9.566;2022-08-01T09:11:57;101631.41;;;22.26;92.21
59859;BME280;45734;53.648;9.566;2022-08-01T09:17:05;101635.41;;;22.55;92.61
59859;BME280;45734;53.648;9.566;2022-08-01T09:22:13;101630.59;;;22.82;89.76
59859;BME280;45734;53.648;9.566;2022-08-01T09:27:19;101646.19;;;23.18;91.15
59859;BME280;45734;53.648;9.566;2022-08-01T09:32:20;101659.13;;;23.23;80.28
59859;BME280;45734;53.648;9.566;2022-08-01T09:37:30;101657.50;;;22.90;85.48
59859;BME280;45734;53.648;9.566;2022-08-01T09:42:30;101669.56;;;23.26;87.53
59859;BME280;45734;53.648;9.566;2022-08-01T09:47:40;101664.28;;;23.31;88.40
59859;BME280;45734;53.648;9.566;2022-08-01T09:52:40;101657.81;;;23.07;82.95
59859;BME280;45734;53.648;9.566;2022-08-01T09:57:54;101665.19;;;23.25;82.39
59859;BME280;45734;53.648;9.566;2022-08-01T10:02:55;101668.91;;;23.31;78.86
59859;BME280;45734;53.648;9.566;2022-08-01T10:07:58;101671.81;;;23.29;79.97
59859;BME280;45734;53.648;9.566;2022-08-01T10:12:59;101672.69;;;22.98;82.97
59859;BME280;45734;53.648;9.566;2022-08-01T10:18:06;101678.53;;;23.26;80.42
59859;BME280;45734;53.648;9.566;2022-08-01T10:23:06;101677.53;;;23.64;81.42
59859;BME280;45734;53.648;9.566;2022-08-01T10:28:15;101687.75;;;23.50;77.75
59859;BME280;45734;53.648;9.566;2022-08-01T10:33:17;101680.78;;;23.55;75.54
59859;BME280;45734;53.648;9.566;2022-08-01T10:38:17;101680.38;;;23.76;77.67
59859;BME280;45734;53.648;9.566;2022-08-01T10:43:18;101680.38;;;23.94;77.93
59859;BME280;45734;53.648;9.566;2022-08-01T10:48:26;101685.59;;;23.53;76.41
59859;BME280;45734;53.648;9.566;2022-08-01T10:53:30;101683.53;;;23.30;75.16
59859;BME280;45734;53.648;9.566;2022-08-01T10:58:35;101688.22;;;23.41;79.92
59859;BME280;45734;53.648;9.566;2022-08-01T11:03:41;101695.84;;;23.32;75.23
59859;BME280;45734;53.648;9.566;2022-08-01T11:08:42;101684.75;;;23.09;75.40
59859;BME280;45734;53.648;9.566;2022-08-01T11:14:00;101694.91;;;22.88;75.40
59859;BME280;45734;53.648;9.566;2022-08-01T11:19:02;101698.50;;;22.82;77.01
59859;BME280;45734;53.648;9.566;2022-08-01T11:24:02;101704.91;;;23.01;75.05
59859;BME280;45734;53.648;9.566;2022-08-01T11:29:14;101702.84;;;22.90;78.59
59859;BME280;45734;53.648;9.566;2022-08-01T11:34:15;101707.47;;;22.82;76.44
59859;BME280;45734;53.648;9.566;2022-08-01T11:39:17;101706.59;;;22.95;74.30
59859;BME280;45734;53.648;9.566;2022-08-01T11:44:20;101718.69;;;22.99;74.95
59859;BME280;45734;53.648;9.566;2022-08-01T11:54:38;101719.75;;;22.92;77.14
59859;BME280;45734;53.648;9.566;2022-08-01T11:59:44;101729.16;;;22.89;73.82
59859;BME280;45734;53.648;9.566;2022-08-01T12:04:50;101732.75;;;22.83;72.91
59859;BME280;45734;53.648;9.566;2022-08-01T12:10:06;101736.28;;;22.90;74.20
59859;BME280;45734;53.648;9.566;2022-08-01T12:15:08;101737.09;;;22.91;73.52
59859;BME280;45734;53.648;9.566;2022-08-01T12:20:10;101740.31;;;22.81;73.62
59859;BME280;45734;53.648;9.566;2022-08-01T12:25:12;101746.09;;;22.53;70.65
59859;BME280;45734;53.648;9.566;2022-08-01T12:30:17;101749.03;;;22.45;72.42
59859;BME280;45734;53.648;9.566;2022-08-01T12:35:28;101753.69;;;22.37;71.69
59859;BME280;45734;53.648;9.566;2022-08-01T12:40:34;101752.44;;;22.33;70.97
59859;BME280;45734;53.648;9.566;2022-08-01T12:45:38;101748.53;;;22.23;69.75
59859;BME280;45734;53.648;9.566;2022-08-01T12:50:47;101744.94;;;22.22;73.70
59859;BME280;45734;53.648;9.566;2022-08-01T12:55:51;101747.91;;;22.21;65.66
59859;BME280;45734;53.648;9.566;2022-08-01T13:01:04;101744.63;;;21.85;67.16
59859;BME280;45734;53.648;9.566;2022-08-01T13:06:12;101750.47;;;21.76;70.54
59859;BME280;45734;53.648;9.566;2022-08-01T13:11:15;101740.47;;;21.69;74.35
59859;BME280;45734;53.648;9.566;2022-08-01T13:16:18;101739.66;;;21.62;72.88
59859;BME280;45734;53.648;9.566;2022-08-01T13:21:29;101737.16;;;21.54;74.39
59859;BME280;45734;53.648;9.566;2022-08-01T13:26:50;101735.25;;;21.68;74.55
59859;BME280;45734;53.648;9.566;2022-08-01T13:31:51;101740.25;;;21.78;74.50
59859;BME280;45734;53.648;9.566;2022-08-01T13:36:51;101737.56;;;21.71;73.73
59859;BME280;45734;53.648;9.566;2022-08-01T13:41:53;101741.31;;;21.70;77.04
59859;BME280;45734;53.648;9.566;2022-08-01T13:46:54;101740.50;;;21.56;71.97
59859;BME280;45734;53.648;9.566;2022-08-01T13:51:56;101750.72;;;21.47;73.31
59859;BME280;45734;53.648;9.566;2022-08-01T13:56:56;101749.84;;;21.34;72.50
59859;BME280;45734;53.648;9.566;2022-08-01T14:01:57;101754.00;;;21.10;73.81
59859;BME280;45734;53.648;9.566;2022-08-01T14:06:57;101761.47;;;20.94;72.94
59859;BME280;45734;53.648;9.566;2022-08-01T14:11:58;101757.66;;;20.75;72.23
59859;BME280;45734;53.648;9.566;2022-08-01T14:16:58;101762.84;;;20.70;74.87
59859;BME280;45734;53.648;9.566;2022-08-01T14:21:58;101765.94;;;20.61;76.33
59859;BME280;45734;53.648;9.566;2022-08-01T14:26:58;101772.44;;;20.73;78.62
59859;BME280;45734;53.648;9.566;2022-08-01T14:31:59;101776.22;;;20.85;78.93
59859;BME280;45734;53.648;9.566;2022-08-01T14:36:59;101772.91;;;20.83;76.35
59859;BME280;45734;53.648;9.566;2022-08-01T14:41:59;101773.25;;;20.67;77.35
59859;BME280;45734;53.648;9.566;2022-08-01T14:47:00;101772.50;;;20.45;77.73
59859;BME280;45734;53.648;9.566;2022-08-01T14:52:00;101760.66;;;20.39;77.20
59859;BME280;45734;53.648;9.566;2022-08-01T14:57:00;101760.41;;;20.34;77.68
59859;BME280;45734;53.648;9.566;2022-08-01T15:02:01;101767.47;;;20.35;78.17
59859;BME280;45734;53.648;9.566;2022-08-01T15:07:01;101773.31;;;20.39;77.59
59859;BME280;45734;53.648;9.566;2022-08-01T15:12:02;101773.09;;;20.33;80.16
59859;BME280;45734;53.648;9.566;2022-08-01T15:17:02;101771.78;;;20.23;79.07
59859;BME280;45734;53.648;9.566;2022-08-01T15:22:03;101776.38;;;20.22;79.74
59859;BME280;45734;53.648;9.566;2022-08-01T15:27:04;101769.41;;;20.06;81.03
59859;BME280;45734;53.648;9.566;2022-08-01T15:32:05;101771.75;;;20.16;81.80
59859;BME280;45734;53.648;9.566;2022-08-01T15:37:07;101770.72;;;20.17;80.59
59859;BME280;45734;53.648;9.566;2022-08-01T15:42:10;101778.75;;;20.04;77.12
59859;BME280;45734;53.648;9.566;2022-08-01T15:47:10;101792.38;;;19.89;78.72
59859;BME280;45734;53.648;9.566;2022-08-01T15:52:11;101785.59;;;19.72;78.11
59859;BME280;45734;53.648;9.566;2022-08-01T15:57:11;101783.38;;;19.60;79.69
59859;BME280;45734;53.648;9.566;2022-08-01T16:02:11;101787.88;;;19.47;80.83
59859;BME280;45734;53.648;9.566;2022-08-01T16:07:13;101787.94;;;19.10;81.37
59859;BME280;45734;53.648;9.566;2022-08-01T16:12:13;101790.91;;;18.79;82.79
59859;BME280;45734;53.648;9.566;2022-08-01T16:17:14;101803.94;;;18.75;82.06
59859;BME280;45734;53.648;9.566;2022-08-01T16:22:14;101806.81;;;18.89;84.63
59859;BME280;45734;53.648;9.566;2022-08-01T16:27:14;101812.28;;;18.95;82.89
59859;BME280;45734;53.648;9.566;2022-08-01T16:32:14;101816.78;;;18.88;82.79
59859;BME280;45734;53.648;9.566;2022-08-01T16:37:15;101822.56;;;18.85;83.90
59859;BME280;45734;53.648;9.566;2022-08-01T16:42:15;101818.53;;;18.81;83.39
59859;BME280;45734;53.648;9.566;2022-08-01T16:47:15;101832.13;;;18.73;84.26
59859;BME280;45734;53.648;9.566;2022-08-01T16:52:16;101817.81;;;18.58;81.36
59859;BME280;45734;53.648;9.566;2022-08-01T16:57:16;101826.28;;;18.40;83.37
59859;BME280;45734;53.648;9.566;2022-08-01T17:02:17;101818.88;;;18.27;84.33
59859;BME280;45734;53.648;9.566;2022-08-01T17:07:17;101818.84;;;18.12;85.32
59859;BME280;45734;53.648;9.566;2022-08-01T17:12:18;101823.94;;;17.92;84.91
59859;BME280;45734;53.648;9.566;2022-08-01T17:17:19;101827.59;;;17.76;86.69
59859;BME280;45734;53.648;9.566;2022-08-01T17:22:19;101828.22;;;17.63;87.53
59859;BME280;45734;53.648;9.566;2022-08-01T17:27:19;101841.44;;;17.50;86.99
59859;BME280;45734;53.648;9.566;2022-08-01T17:32:20;101846.25;;;17.40;89.35
59859;BME280;45734;53.648;9.566;2022-08-01T17:37:20;101841.44;;;17.27;88.92
59859;BME280;45734;53.648;9.566;2022-08-01T17:42:21;101849.91;;;17.16;91.43
59859;BME280;45734;53.648;9.566;2022-08-01T17:47:24;101845.31;;;17.02;91.23
59859;BME280;45734;53.648;9.566;2022-08-01T17:52:24;101842.34;;;16.88;91.92
59859;BME280;45734;53.648;9.566;2022-08-01T17:57:25;101842.72;;;16.77;93.56
59859;BME280;45734;53.648;9.566;2022-08-01T18:02:25;101837.53;;;16.67;94.34
59859;BME280;45734;53.648;9.566;2022-08-01T18:07:26;101846.81;;;16.57;94.62
59859;BME280;45734;53.648;9.566;2022-08-01T18:12:26;101842.47;;;16.47;97.04
59859;BME280;45734;53.648;9.566;2022-08-01T18:17:26;101840.16;;;16.36;98.00
59859;BME280;45734;53.648;9.566;2022-08-01T18:22:27;101842.19;;;16.26;95.88
59859;BME280;45734;53.648;9.566;2022-08-01T18:27:27;101843.41;;;16.15;95.53
59859;BME280;45734;53.648;9.566;2022-08-01T18:32:28;101843.91;;;16.02;98.12
59859;BME280;45734;53.648;9.566;2022-08-01T18:37:28;101846.31;;;15.89;98.96
59859;BME280;45734;53.648;9.566;2022-08-01T18:42:28;101844.28;;;15.75;99.67
59859;BME280;45734;53.648;9.566;2022-08-01T18:47:28;101850.16;;;15.62;100.00
59859;BME280;45734;53.648;9.566;2022-08-01T18:52:29;101855.16;;;15.49;100.00
59859;BME280;45734;53.648;9.566;2022-08-01T18:57:31;101847.91;;;15.33;100.00
59859;BME280;45734;53.648;9.566;2022-08-01T19:02:31;101857.47;;;15.19;100.00
59859;BME280;45734;53.648;9.566;2022-08-01T19:07:31;101853.41;;;15.07;100.00
59859;BME280;45734;53.648;9.566;2022-08-01T19:12:31;101863.75;;;14.93;100.00
59859;BME280;45734;53.648;9.566;2022-08-01T19:17:32;101870.94;;;14.85;100.00
59859;BME280;45734;53.648;9.566;2022-08-01T19:22:32;101869.38;;;14.74;100.00
59859;BME280;45734;53.648;9.566;2022-08-01T19:27:34;101878.72;;;14.62;100.00
59859;BME280;45734;53.648;9.566;2022-08-01T19:32:37;101881.13;;;14.47;100.00
59859;BME280;45734;53.648;9.566;2022-08-01T19:37:39;101879.19;;;14.31;100.00
59859;BME280;45734;53.648;9.566;2022-08-01T19:42:44;101888.66;;;14.17;100.00
59859;BME280;45734;53.648;9.566;2022-08-01T19:47:45;101884.69;;;14.03;100.00
59859;BME280;45734;53.648;9.566;2022-08-01T19:52:46;101891.13;;;13.93;100.00
59859;BME280;45734;53.648;9.566;2022-08-01T19:57:48;101892.88;;;13.84;100.00
59859;BME280;45734;53.648;9.566;2022-08-01T20:02:52;101896.34;;;13.76;100.00
59859;BME280;45734;53.648;9.566;2022-08-01T20:07:54;101900.94;;;13.66;100.00
59859;BME280;45734;53.648;9.566;2022-08-01T20:12:55;101904.00;;;13.53;100.00
59859;BME280;45734;53.648;9.566;2022-08-01T20:17:57;101899.56;;;13.44;100.00
59859;BME280;45734;53.648;9.566;2022-08-01T20:22:58;101886.09;;;13.36;100.00
59859;BME280;45734;53.648;9.566;2022-08-01T20:27:58;101883.47;;;13.26;100.00
59859;BME280;45734;53.648;9.566;2022-08-01T20:32:59;101888.16;;;13.14;100.00
59859;BME280;45734;53.648;9.566;2022-08-01T20:38:00;101897.78;;;13.07;100.00
59859;BME280;45734;53.648;9.566;2022-08-01T20:43:02;101904.03;;;12.98;100.00
59859;BME280;45734;53.648;9.566;2022-08-01T20:48:04;101910.53;;;12.96;100.00
59859;BME280;45734;53.648;9.566;2022-08-01T20:53:07;101907.31;;;12.92;100.00
59859;BME280;45734;53.648;9.566;2022-08-01T20:58:08;101916.28;;;12.91;100.00
59859;BME280;45734;53.648;9.566;2022-08-01T21:03:18;101910.88;;;12.83;100.00
59859;BME280;45734;53.648;9.566;2022-08-01T21:08:23;101914.69;;;12.80;100.00
59859;BME280;45734;53.648;9.566;2022-08-01T21:13:40;101908.09;;;12.75;100.00
59859;BME280;45734;53.648;9.566;2022-08-01T21:18:56;101905.72;;;12.72;100.00
59859;BME280;45734;53.648;9.566;2022-08-01T21:24:03;101899.13;;;12.66;100.00
59859;BME280;45734;53.648;9.566;2022-08-01T21:29:05;101907.72;;;12.60;100.00
59859;BME280;45734;53.648;9.566;2022-08-01T21:34:07;101909.16;;;12.54;100.00
59859;BME280;45734;53.648;9.566;2022-08-01T21:39:08;101902.13;;;12.43;100.00
59859;BME280;45734;53.648;9.566;2022-08-01T21:44:10;101903.75;;;12.17;100.00
59859;BME280;45734;53.648;9.566;2022-08-01T21:49:13;101895.19;;;11.84;100.00
59859;BME280;45734;53.648;9.566;2022-08-01T21:54:25;101913.69;;;11.66;100.00
59859;BME280;45734;53.648;9.566;2022-08-01T22:04:51;101910.59;;;11.42;100.00
59859;BME280;45734;53.648;9.566;2022-08-01T22:09:52;101909.75;;;11.31;100.00
59859;BME280;45734;53.648;9.566;2022-08-01T22:14:54;101908.88;;;11.21;100.00
59859;BME280;45734;53.648;9.566;2022-08-01T22:19:55;101914.75;;;11.15;100.00
59859;BME280;45734;53.648;9.566;2022-08-01T22:24:57;101925.97;;;11.09;100.00
59859;BME280;45734;53.648;9.566;2022-08-01T22:30:02;101927.09;;;11.06;100.00
59859;BME280;45734;53.648;9.566;2022-08-01T22:35:07;101925.13;;;11.08;100.00
59859;BME280;45734;53.648;9.566;2022-08-01T22:40:12;101925.41;;;11.05;100.00
59859;BME280;45734;53.648;9.566;2022-08-01T22:45:17;101928.91;;;11.06;100.00
59859;BME280;45734;53.648;9.566;2022-08-01T22:50:23;101918.63;;;11.01;100.00
59859;BME280;45734;53.648;9.566;2022-08-01T22:55:27;101903.16;;;10.85;100.00
59859;BME280;45734;53.648;9.566;2022-08-01T23:00:30;101902.34;;;10.64;100.00
59859;BME280;45734;53.648;9.566;2022-08-01T23:05:34;101897.53;;;10.48;100.00
59859;BME280;45734;53.648;9.566;2022-08-01T23:10:35;101899.53;;;10.35;100.00
59859;BME280;45734;53.648;9.566;2022-08-01T23:15:35;101894.50;;;10.20;100.00
59859;BME280;45734;53.648;9.566;2022-08-01T23:20:36;101898.13;;;10.10;100.00
59859;BME280;45734;53.648;9.566;2022-08-01T23:25:37;101904.59;;;9.96;100.00
59859;BME280;45734;53.648;9.566;2022-08-01T23:30:37;101906.56;;;9.83;100.00
59859;BME280;45734;53.648;9.566;2022-08-01T23:35:39;101897.69;;;9.72;100.00
59859;BME280;45734;53.648;9.566;2022-08-01T23:40:40;101894.69;;;9.66;100.00
59859;BME280;45734;53.648;9.566;2022-08-01T23:45:40;101894.81;;;9.64;100.00
59859;BME280;45734;53.648;9.566;2022-08-01T23:50:40;101893.47;;;9.70;100.00
59859;BME280;45734;53.648;9.566;2022-08-01T23:55:41;101897.09;;;9.69;100.00
